sensor_id;sensor_type;location;lat;lon;timestamp;P1;durP1;ratioP1;P2;durP2;ratioP2
64297;SDS011;50639;53.270;7.956;2023-06-22T00:00:57;14.57;;;11.60;;
64297;SDS011;50639;53.270;7.956;2023-06-22T00:03:24;16.60;;;13.45;;
64297;SDS011;50639;53.270;7.956;2023-06-22T00:05:50;14.98;;;12.05;;
64297;SDS011;50639;53.270;7.956;2023-06-22T00:08:17;17.45;;;13.52;;
64297;SDS011;50639;53.270;7.956;2023-06-22T00:10:44;18.08;;;12.68;;
64297;SDS011;50639;53.270;7.956;2023-06-22T00:13:10;14.75;;;11.88;;
64297;SDS011;50639;53.270;7.956;2023-06-22T00:15:37;15.43;;;13.65;;
64297;SDS011;50639;53.270;7.956;2023-06-22T00:18:04;23.55;;;15.40;;
64297;SDS011;50639;53.270;7.956;2023-06-22T00:20:31;14.50;;;12.20;;
64297;SDS011;50639;53.270;7.956;2023-06-22T00:22:58;13.98;;;11.05;;
64297;SDS011;50639;53.270;7.956;2023-06-22T00:25:24;16.55;;;12.18;;
64297;SDS011;50639;53.270;7.956;2023-06-22T00:27:50;19.33;;;14.30;;
64297;SDS011;50639;53.270;7.956;2023-06-22T00:30:16;17.70;;;15.02;;
64297;SDS011;50639;53.270;7.956;2023-06-22T00:32:43;18.83;;;16.80;;
64297;SDS011;50639;53.270;7.956;2023-06-22T00:35:09;13.43;;;11.43;;
64297;SDS011;50639;53.270;7.956;2023-06-22T00:37:38;13.25;;;10.25;;
64297;SDS011;50639;53.270;7.956;2023-06-22T00:40:07;15.20;;;12.88;;
64297;SDS011;50639;53.270;7.956;2023-06-22T00:42:34;14.57;;;12.70;;
64297;SDS011;50639;53.270;7.956;2023-06-22T00:44:59;12.35;;;10.52;;
64297;SDS011;50639;53.270;7.956;2023-06-22T00:47:25;17.73;;;14.23;;
64297;SDS011;50639;53.270;7.956;2023-06-22T00:49:50;14.73;;;12.85;;
64297;SDS011;50639;53.270;7.956;2023-06-22T00:52:16;16.77;;;12.30;;
64297;SDS011;50639;53.270;7.956;2023-06-22T00:54:47;14.52;;;12.80;;
64297;SDS011;50639;53.270;7.956;2023-06-22T00:57:14;16.80;;;14.07;;
64297;SDS011;50639;53.270;7.956;2023-06-22T00:59:43;18.23;;;13.95;;
64297;SDS011;50639;53.270;7.956;2023-06-22T01:02:13;18.35;;;12.95;;
64297;SDS011;50639;53.270;7.956;2023-06-22T01:04:39;14.25;;;12.20;;
64297;SDS011;50639;53.270;7.956;2023-06-22T01:12:27;17.40;;;13.18;;
64297;SDS011;50639;53.270;7.956;2023-06-22T01:15:08;16.10;;;13.32;;
64297;SDS011;50639;53.270;7.956;2023-06-22T01:17:37;17.65;;;15.02;;
64297;SDS011;50639;53.270;7.956;2023-06-22T01:20:09;16.85;;;14.10;;
64297;SDS011;50639;53.270;7.956;2023-06-22T01:25:36;22.07;;;17.83;;
64297;SDS011;50639;53.270;7.956;2023-06-22T01:28:24;16.27;;;14.43;;
64297;SDS011;50639;53.270;7.956;2023-06-22T01:31:10;19.50;;;16.25;;
64297;SDS011;50639;53.270;7.956;2023-06-22T01:33:39;19.35;;;16.42;;
64297;SDS011;50639;53.270;7.956;2023-06-22T01:36:06;19.10;;;14.48;;
64297;SDS011;50639;53.270;7.956;2023-06-22T01:38:33;19.63;;;15.13;;
64297;SDS011;50639;53.270;7.956;2023-06-22T01:41:00;17.50;;;13.77;;
64297;SDS011;50639;53.270;7.956;2023-06-22T01:43:26;16.33;;;12.05;;
64297;SDS011;50639;53.270;7.956;2023-06-22T01:45:59;16.05;;;13.05;;
64297;SDS011;50639;53.270;7.956;2023-06-22T01:48:26;13.63;;;11.40;;
64297;SDS011;50639;53.270;7.956;2023-06-22T01:50:53;14.40;;;12.23;;
64297;SDS011;50639;53.270;7.956;2023-06-22T01:53:22;12.73;;;10.20;;
64297;SDS011;50639;53.270;7.956;2023-06-22T01:55:50;20.13;;;16.08;;
64297;SDS011;50639;53.270;7.956;2023-06-22T01:58:16;19.33;;;15.85;;
64297;SDS011;50639;53.270;7.956;2023-06-22T02:00:53;22.52;;;16.75;;
64297;SDS011;50639;53.270;7.956;2023-06-22T02:03:34;21.58;;;17.92;;
64297;SDS011;50639;53.270;7.956;2023-06-22T02:06:08;22.67;;;18.95;;
64297;SDS011;50639;53.270;7.956;2023-06-22T02:08:59;21.25;;;16.95;;
64297;SDS011;50639;53.270;7.956;2023-06-22T02:11:26;26.05;;;20.85;;
64297;SDS011;50639;53.270;7.956;2023-06-22T02:13:54;21.00;;;16.30;;
64297;SDS011;50639;53.270;7.956;2023-06-22T02:16:23;24.33;;;21.13;;
64297;SDS011;50639;53.270;7.956;2023-06-22T02:18:49;21.55;;;18.05;;
64297;SDS011;50639;53.270;7.956;2023-06-22T02:23:42;21.88;;;18.48;;
64297;SDS011;50639;53.270;7.956;2023-06-22T02:26:07;17.42;;;14.63;;
64297;SDS011;50639;53.270;7.956;2023-06-22T02:28:32;16.75;;;14.48;;
64297;SDS011;50639;53.270;7.956;2023-06-22T02:30:58;17.95;;;15.98;;
64297;SDS011;50639;53.270;7.956;2023-06-22T02:33:24;21.08;;;18.20;;
64297;SDS011;50639;53.270;7.956;2023-06-22T02:35:49;22.88;;;19.45;;
64297;SDS011;50639;53.270;7.956;2023-06-22T02:38:14;23.75;;;20.08;;
64297;SDS011;50639;53.270;7.956;2023-06-22T02:40:40;21.13;;;16.42;;
64297;SDS011;50639;53.270;7.956;2023-06-22T02:43:06;21.20;;;18.08;;
64297;SDS011;50639;53.270;7.956;2023-06-22T02:45:31;17.38;;;14.93;;
64297;SDS011;50639;53.270;7.956;2023-06-22T02:47:57;19.50;;;15.00;;
64297;SDS011;50639;53.270;7.956;2023-06-22T02:50:23;25.45;;;19.60;;
64297;SDS011;50639;53.270;7.956;2023-06-22T02:52:49;19.05;;;16.25;;
64297;SDS011;50639;53.270;7.956;2023-06-22T02:55:14;20.48;;;17.45;;
64297;SDS011;50639;53.270;7.956;2023-06-22T02:57:44;23.90;;;18.83;;
64297;SDS011;50639;53.270;7.956;2023-06-22T03:02:46;28.50;;;22.60;;
64297;SDS011;50639;53.270;7.956;2023-06-22T03:05:13;22.95;;;18.92;;
64297;SDS011;50639;53.270;7.956;2023-06-22T03:07:40;16.13;;;13.65;;
64297;SDS011;50639;53.270;7.956;2023-06-22T03:10:08;18.52;;;16.40;;
64297;SDS011;50639;53.270;7.956;2023-06-22T03:12:35;18.83;;;15.93;;
64297;SDS011;50639;53.270;7.956;2023-06-22T03:15:04;18.65;;;14.52;;
64297;SDS011;50639;53.270;7.956;2023-06-22T03:17:30;18.10;;;14.60;;
64297;SDS011;50639;53.270;7.956;2023-06-22T03:19:56;20.60;;;18.08;;
64297;SDS011;50639;53.270;7.956;2023-06-22T03:22:21;19.67;;;17.00;;
64297;SDS011;50639;53.270;7.956;2023-06-22T03:24:48;25.50;;;21.63;;
64297;SDS011;50639;53.270;7.956;2023-06-22T03:27:14;23.77;;;21.15;;
64297;SDS011;50639;53.270;7.956;2023-06-22T03:29:40;17.83;;;15.95;;
64297;SDS011;50639;53.270;7.956;2023-06-22T03:32:05;20.00;;;16.45;;
64297;SDS011;50639;53.270;7.956;2023-06-22T03:34:32;19.20;;;15.82;;
64297;SDS011;50639;53.270;7.956;2023-06-22T03:37:03;16.70;;;14.23;;
64297;SDS011;50639;53.270;7.956;2023-06-22T03:39:29;26.30;;;22.02;;
64297;SDS011;50639;53.270;7.956;2023-06-22T03:41:56;23.27;;;20.40;;
64297;SDS011;50639;53.270;7.956;2023-06-22T03:44:23;23.88;;;20.10;;
64297;SDS011;50639;53.270;7.956;2023-06-22T03:46:48;27.08;;;22.90;;
64297;SDS011;50639;53.270;7.956;2023-06-22T03:49:14;19.13;;;16.58;;
64297;SDS011;50639;53.270;7.956;2023-06-22T03:51:39;22.55;;;19.70;;
64297;SDS011;50639;53.270;7.956;2023-06-22T03:54:04;17.95;;;14.88;;
64297;SDS011;50639;53.270;7.956;2023-06-22T03:56:30;18.42;;;15.20;;
64297;SDS011;50639;53.270;7.956;2023-06-22T04:01:23;16.00;;;14.23;;
64297;SDS011;50639;53.270;7.956;2023-06-22T04:03:48;15.25;;;13.65;;
64297;SDS011;50639;53.270;7.956;2023-06-22T04:06:15;17.00;;;13.75;;
64297;SDS011;50639;53.270;7.956;2023-06-22T04:08:40;16.17;;;14.20;;
64297;SDS011;50639;53.270;7.956;2023-06-22T04:11:06;17.33;;;13.30;;
64297;SDS011;50639;53.270;7.956;2023-06-22T04:13:31;18.80;;;15.77;;
64297;SDS011;50639;53.270;7.956;2023-06-22T04:15:56;19.80;;;16.75;;
64297;SDS011;50639;53.270;7.956;2023-06-22T04:18:22;20.52;;;18.17;;
64297;SDS011;50639;53.270;7.956;2023-06-22T04:20:47;27.20;;;22.58;;
64297;SDS011;50639;53.270;7.956;2023-06-22T04:23:13;22.75;;;19.75;;
64297;SDS011;50639;53.270;7.956;2023-06-22T04:25:39;21.55;;;17.50;;
64297;SDS011;50639;53.270;7.956;2023-06-22T04:28:04;22.88;;;20.20;;
64297;SDS011;50639;53.270;7.956;2023-06-22T04:30:30;26.00;;;23.05;;
64297;SDS011;50639;53.270;7.956;2023-06-22T04:32:57;23.73;;;21.23;;
64297;SDS011;50639;53.270;7.956;2023-06-22T04:35:26;23.20;;;18.92;;
64297;SDS011;50639;53.270;7.956;2023-06-22T04:37:52;26.05;;;23.25;;
64297;SDS011;50639;53.270;7.956;2023-06-22T04:40:21;26.73;;;22.58;;
64297;SDS011;50639;53.270;7.956;2023-06-22T04:42:47;36.20;;;26.45;;
64297;SDS011;50639;53.270;7.956;2023-06-22T04:45:18;27.20;;;23.08;;
64297;SDS011;50639;53.270;7.956;2023-06-22T04:47:45;30.92;;;25.40;;
64297;SDS011;50639;53.270;7.956;2023-06-22T04:50:11;28.52;;;24.90;;
64297;SDS011;50639;53.270;7.956;2023-06-22T04:52:37;31.23;;;25.73;;
64297;SDS011;50639;53.270;7.956;2023-06-22T04:55:03;31.13;;;26.33;;
64297;SDS011;50639;53.270;7.956;2023-06-22T04:57:29;31.65;;;22.42;;
64297;SDS011;50639;53.270;7.956;2023-06-22T05:00:00;38.13;;;28.00;;
64297;SDS011;50639;53.270;7.956;2023-06-22T05:02:26;59.38;;;31.73;;
64297;SDS011;50639;53.270;7.956;2023-06-22T05:04:52;41.08;;;28.25;;
64297;SDS011;50639;53.270;7.956;2023-06-22T05:07:21;49.17;;;29.10;;
64297;SDS011;50639;53.270;7.956;2023-06-22T05:09:50;47.45;;;28.85;;
64297;SDS011;50639;53.270;7.956;2023-06-22T05:12:16;40.78;;;27.80;;
64297;SDS011;50639;53.270;7.956;2023-06-22T05:14:41;43.80;;;29.25;;
64297;SDS011;50639;53.270;7.956;2023-06-22T05:17:06;42.28;;;32.10;;
64297;SDS011;50639;53.270;7.956;2023-06-22T05:19:39;37.35;;;30.05;;
64297;SDS011;50639;53.270;7.956;2023-06-22T05:22:10;36.55;;;29.33;;
64297;SDS011;50639;53.270;7.956;2023-06-22T05:24:37;34.67;;;27.77;;
64297;SDS011;50639;53.270;7.956;2023-06-22T05:27:03;35.97;;;30.35;;
64297;SDS011;50639;53.270;7.956;2023-06-22T05:29:29;31.95;;;28.35;;
64297;SDS011;50639;53.270;7.956;2023-06-22T05:31:54;36.05;;;30.50;;
64297;SDS011;50639;53.270;7.956;2023-06-22T05:34:19;33.15;;;29.63;;
64297;SDS011;50639;53.270;7.956;2023-06-22T05:36:45;33.22;;;28.92;;
64297;SDS011;50639;53.270;7.956;2023-06-22T05:39:11;39.15;;;30.85;;
64297;SDS011;50639;53.270;7.956;2023-06-22T05:41:38;34.25;;;28.33;;
64297;SDS011;50639;53.270;7.956;2023-06-22T05:44:04;33.92;;;29.40;;
64297;SDS011;50639;53.270;7.956;2023-06-22T05:46:29;39.70;;;31.48;;
64297;SDS011;50639;53.270;7.956;2023-06-22T05:48:55;39.85;;;30.88;;
64297;SDS011;50639;53.270;7.956;2023-06-22T05:51:20;32.47;;;27.38;;
64297;SDS011;50639;53.270;7.956;2023-06-22T05:53:46;36.30;;;32.28;;
64297;SDS011;50639;53.270;7.956;2023-06-22T05:56:14;38.92;;;31.63;;
64297;SDS011;50639;53.270;7.956;2023-06-22T05:58:40;37.55;;;31.85;;
64297;SDS011;50639;53.270;7.956;2023-06-22T06:01:06;37.30;;;31.45;;
64297;SDS011;50639;53.270;7.956;2023-06-22T06:03:31;37.78;;;32.58;;
64297;SDS011;50639;53.270;7.956;2023-06-22T06:05:57;38.10;;;30.98;;
64297;SDS011;50639;53.270;7.956;2023-06-22T06:08:22;37.85;;;33.00;;
64297;SDS011;50639;53.270;7.956;2023-06-22T06:10:48;38.65;;;34.22;;
64297;SDS011;50639;53.270;7.956;2023-06-22T06:13:13;35.70;;;31.40;;
64297;SDS011;50639;53.270;7.956;2023-06-22T06:15:39;36.80;;;30.98;;
64297;SDS011;50639;53.270;7.956;2023-06-22T06:18:04;35.53;;;29.65;;
64297;SDS011;50639;53.270;7.956;2023-06-22T06:20:31;33.53;;;28.67;;
64297;SDS011;50639;53.270;7.956;2023-06-22T06:22:57;34.17;;;29.55;;
64297;SDS011;50639;53.270;7.956;2023-06-22T06:25:23;34.35;;;30.30;;
64297;SDS011;50639;53.270;7.956;2023-06-22T06:27:49;34.45;;;30.73;;
64297;SDS011;50639;53.270;7.956;2023-06-22T06:30:22;34.97;;;29.25;;
64297;SDS011;50639;53.270;7.956;2023-06-22T06:32:47;34.15;;;29.33;;
64297;SDS011;50639;53.270;7.956;2023-06-22T06:35:14;32.83;;;29.23;;
64297;SDS011;50639;53.270;7.956;2023-06-22T06:37:44;32.80;;;29.30;;
64297;SDS011;50639;53.270;7.956;2023-06-22T06:46:24;30.65;;;26.95;;
64297;SDS011;50639;53.270;7.956;2023-06-22T06:48:49;27.48;;;23.67;;
64297;SDS011;50639;53.270;7.956;2023-06-22T06:51:15;28.15;;;22.17;;
64297;SDS011;50639;53.270;7.956;2023-06-22T06:53:40;28.30;;;22.33;;
64297;SDS011;50639;53.270;7.956;2023-06-22T06:56:08;27.17;;;22.70;;
64297;SDS011;50639;53.270;7.956;2023-06-22T06:58:52;25.95;;;22.48;;
64297;SDS011;50639;53.270;7.956;2023-06-22T07:01:26;30.67;;;25.00;;
64297;SDS011;50639;53.270;7.956;2023-06-22T07:03:52;28.17;;;24.83;;
64297;SDS011;50639;53.270;7.956;2023-06-22T07:06:18;28.30;;;23.40;;
64297;SDS011;50639;53.270;7.956;2023-06-22T07:08:44;30.33;;;22.73;;
64297;SDS011;50639;53.270;7.956;2023-06-22T07:11:09;25.58;;;20.70;;
64297;SDS011;50639;53.270;7.956;2023-06-22T07:13:35;22.90;;;20.40;;
64297;SDS011;50639;53.270;7.956;2023-06-22T07:16:01;19.87;;;17.67;;
64297;SDS011;50639;53.270;7.956;2023-06-22T07:18:27;22.83;;;17.13;;
64297;SDS011;50639;53.270;7.956;2023-06-22T07:20:54;21.92;;;17.70;;
64297;SDS011;50639;53.270;7.956;2023-06-22T07:23:19;21.60;;;19.20;;
64297;SDS011;50639;53.270;7.956;2023-06-22T07:25:45;19.10;;;15.82;;
64297;SDS011;50639;53.270;7.956;2023-06-22T07:28:11;17.15;;;15.35;;
64297;SDS011;50639;53.270;7.956;2023-06-22T07:30:38;17.67;;;14.82;;
64297;SDS011;50639;53.270;7.956;2023-06-22T07:33:04;17.73;;;14.90;;
64297;SDS011;50639;53.270;7.956;2023-06-22T07:35:34;17.92;;;14.07;;
64297;SDS011;50639;53.270;7.956;2023-06-22T07:38:00;16.85;;;14.23;;
64297;SDS011;50639;53.270;7.956;2023-06-22T07:40:25;17.25;;;14.38;;
64297;SDS011;50639;53.270;7.956;2023-06-22T07:42:51;16.70;;;13.57;;
64297;SDS011;50639;53.270;7.956;2023-06-22T07:45:18;15.23;;;12.50;;
64297;SDS011;50639;53.270;7.956;2023-06-22T07:47:43;17.10;;;12.48;;
64297;SDS011;50639;53.270;7.956;2023-06-22T07:50:09;18.52;;;12.68;;
64297;SDS011;50639;53.270;7.956;2023-06-22T07:52:35;13.70;;;10.43;;
64297;SDS011;50639;53.270;7.956;2023-06-22T07:55:00;16.23;;;11.60;;
64297;SDS011;50639;53.270;7.956;2023-06-22T07:57:27;13.57;;;10.77;;
64297;SDS011;50639;53.270;7.956;2023-06-22T07:59:59;14.43;;;10.05;;
64297;SDS011;50639;53.270;7.956;2023-06-22T08:02:26;12.83;;;10.83;;
64297;SDS011;50639;53.270;7.956;2023-06-22T08:04:52;12.38;;;9.98;;
64297;SDS011;50639;53.270;7.956;2023-06-22T08:07:17;14.13;;;9.90;;
64297;SDS011;50639;53.270;7.956;2023-06-22T08:09:48;15.70;;;10.23;;
64297;SDS011;50639;53.270;7.956;2023-06-22T08:12:14;12.40;;;9.82;;
64297;SDS011;50639;53.270;7.956;2023-06-22T08:14:41;14.93;;;10.73;;
64297;SDS011;50639;53.270;7.956;2023-06-22T08:17:08;13.57;;;10.20;;
64297;SDS011;50639;53.270;7.956;2023-06-22T08:19:34;12.23;;;9.52;;
64297;SDS011;50639;53.270;7.956;2023-06-22T08:21:59;14.57;;;10.20;;
64297;SDS011;50639;53.270;7.956;2023-06-22T08:24:25;11.63;;;9.65;;
64297;SDS011;50639;53.270;7.956;2023-06-22T08:26:51;12.60;;;9.63;;
64297;SDS011;50639;53.270;7.956;2023-06-22T08:29:17;11.23;;;8.57;;
64297;SDS011;50639;53.270;7.956;2023-06-22T08:31:42;11.48;;;8.73;;
64297;SDS011;50639;53.270;7.956;2023-06-22T08:34:08;12.85;;;10.13;;
64297;SDS011;50639;53.270;7.956;2023-06-22T08:36:33;13.10;;;9.43;;
64297;SDS011;50639;53.270;7.956;2023-06-22T08:39:03;13.82;;;10.40;;
64297;SDS011;50639;53.270;7.956;2023-06-22T08:41:29;14.90;;;9.80;;
64297;SDS011;50639;53.270;7.956;2023-06-22T08:43:55;14.07;;;10.23;;
64297;SDS011;50639;53.270;7.956;2023-06-22T08:46:21;14.00;;;9.27;;
64297;SDS011;50639;53.270;7.956;2023-06-22T08:48:49;15.43;;;10.60;;
64297;SDS011;50639;53.270;7.956;2023-06-22T08:51:15;13.00;;;9.20;;
64297;SDS011;50639;53.270;7.956;2023-06-22T08:53:42;12.63;;;9.60;;
64297;SDS011;50639;53.270;7.956;2023-06-22T08:56:08;12.45;;;8.73;;
64297;SDS011;50639;53.270;7.956;2023-06-22T08:58:33;10.60;;;7.25;;
64297;SDS011;50639;53.270;7.956;2023-06-22T09:00:59;12.30;;;7.88;;
64297;SDS011;50639;53.270;7.956;2023-06-22T09:05:52;12.50;;;9.07;;
64297;SDS011;50639;53.270;7.956;2023-06-22T09:08:17;12.48;;;7.95;;
64297;SDS011;50639;53.270;7.956;2023-06-22T09:10:43;11.20;;;8.25;;
64297;SDS011;50639;53.270;7.956;2023-06-22T09:13:08;13.13;;;8.27;;
64297;SDS011;50639;53.270;7.956;2023-06-22T09:15:34;13.50;;;7.55;;
64297;SDS011;50639;53.270;7.956;2023-06-22T09:17:59;12.63;;;7.47;;
64297;SDS011;50639;53.270;7.956;2023-06-22T09:20:25;12.32;;;8.55;;
64297;SDS011;50639;53.270;7.956;2023-06-22T09:22:51;12.52;;;8.68;;
64297;SDS011;50639;53.270;7.956;2023-06-22T09:25:17;17.58;;;8.18;;
64297;SDS011;50639;53.270;7.956;2023-06-22T09:27:43;12.70;;;8.10;;
64297;SDS011;50639;53.270;7.956;2023-06-22T09:30:08;12.10;;;7.63;;
64297;SDS011;50639;53.270;7.956;2023-06-22T09:32:34;24.83;;;8.13;;
64297;SDS011;50639;53.270;7.956;2023-06-22T09:35:02;11.43;;;7.22;;
64297;SDS011;50639;53.270;7.956;2023-06-22T09:37:31;10.27;;;7.07;;
64297;SDS011;50639;53.270;7.956;2023-06-22T09:39:57;10.98;;;8.05;;
64297;SDS011;50639;53.270;7.956;2023-06-22T09:42:24;10.88;;;7.55;;
64297;SDS011;50639;53.270;7.956;2023-06-22T09:44:49;17.17;;;8.18;;
64297;SDS011;50639;53.270;7.956;2023-06-22T09:47:14;10.95;;;7.88;;
64297;SDS011;50639;53.270;7.956;2023-06-22T09:49:40;14.48;;;8.30;;
64297;SDS011;50639;53.270;7.956;2023-06-22T09:52:05;12.45;;;7.88;;
64297;SDS011;50639;53.270;7.956;2023-06-22T09:54:31;12.15;;;7.68;;
64297;SDS011;50639;53.270;7.956;2023-06-22T09:56:57;11.07;;;7.63;;
64297;SDS011;50639;53.270;7.956;2023-06-22T09:59:22;16.42;;;7.70;;
64297;SDS011;50639;53.270;7.956;2023-06-22T10:01:47;15.98;;;8.20;;
64297;SDS011;50639;53.270;7.956;2023-06-22T10:04:13;13.43;;;8.57;;
64297;SDS011;50639;53.270;7.956;2023-06-22T10:06:38;15.68;;;9.23;;
64297;SDS011;50639;53.270;7.956;2023-06-22T10:09:06;15.57;;;7.55;;
64297;SDS011;50639;53.270;7.956;2023-06-22T10:11:32;13.38;;;7.35;;
64297;SDS011;50639;53.270;7.956;2023-06-22T10:16:32;11.55;;;8.48;;
64297;SDS011;50639;53.270;7.956;2023-06-22T10:18:58;12.35;;;7.97;;
64297;SDS011;50639;53.270;7.956;2023-06-22T10:21:23;14.23;;;8.13;;
64297;SDS011;50639;53.270;7.956;2023-06-22T10:23:49;10.43;;;8.10;;
64297;SDS011;50639;53.270;7.956;2023-06-22T10:26:15;12.80;;;8.32;;
64297;SDS011;50639;53.270;7.956;2023-06-22T10:28:40;10.75;;;7.45;;
64297;SDS011;50639;53.270;7.956;2023-06-22T10:31:05;10.02;;;7.95;;
64297;SDS011;50639;53.270;7.956;2023-06-22T10:33:31;11.88;;;8.25;;
64297;SDS011;50639;53.270;7.956;2023-06-22T10:35:56;13.05;;;7.72;;
64297;SDS011;50639;53.270;7.956;2023-06-22T10:38:22;12.85;;;8.48;;
64297;SDS011;50639;53.270;7.956;2023-06-22T10:40:48;12.13;;;8.55;;
64297;SDS011;50639;53.270;7.956;2023-06-22T10:43:14;12.70;;;8.38;;
64297;SDS011;50639;53.270;7.956;2023-06-22T10:45:39;11.02;;;8.13;;
64297;SDS011;50639;53.270;7.956;2023-06-22T10:48:05;12.00;;;7.30;;
64297;SDS011;50639;53.270;7.956;2023-06-22T10:50:30;10.18;;;7.72;;
64297;SDS011;50639;53.270;7.956;2023-06-22T10:52:58;12.45;;;8.98;;
64297;SDS011;50639;53.270;7.956;2023-06-22T10:55:26;17.65;;;8.10;;
64297;SDS011;50639;53.270;7.956;2023-06-22T10:57:51;8.55;;;6.43;;
64297;SDS011;50639;53.270;7.956;2023-06-22T11:00:17;10.18;;;6.97;;
64297;SDS011;50639;53.270;7.956;2023-06-22T11:02:43;10.63;;;7.93;;
64297;SDS011;50639;53.270;7.956;2023-06-22T11:05:08;10.43;;;8.00;;
64297;SDS011;50639;53.270;7.956;2023-06-22T11:07:34;11.70;;;7.18;;
64297;SDS011;50639;53.270;7.956;2023-06-22T11:09:59;14.23;;;7.07;;
64297;SDS011;50639;53.270;7.956;2023-06-22T11:12:25;8.80;;;6.55;;
64297;SDS011;50639;53.270;7.956;2023-06-22T11:14:50;11.80;;;7.38;;
64297;SDS011;50639;53.270;7.956;2023-06-22T11:17:17;11.77;;;8.47;;
64297;SDS011;50639;53.270;7.956;2023-06-22T11:19:43;13.55;;;7.78;;
64297;SDS011;50639;53.270;7.956;2023-06-22T11:22:11;9.90;;;7.70;;
64297;SDS011;50639;53.270;7.956;2023-06-22T11:24:37;11.27;;;8.27;;
64297;SDS011;50639;53.270;7.956;2023-06-22T11:27:03;13.95;;;8.80;;
64297;SDS011;50639;53.270;7.956;2023-06-22T11:29:29;11.10;;;8.55;;
64297;SDS011;50639;53.270;7.956;2023-06-22T11:31:55;9.73;;;6.63;;
64297;SDS011;50639;53.270;7.956;2023-06-22T11:34:21;17.43;;;7.43;;
64297;SDS011;50639;53.270;7.956;2023-06-22T11:36:47;12.90;;;8.15;;
64297;SDS011;50639;53.270;7.956;2023-06-22T11:39:13;11.32;;;7.70;;
64297;SDS011;50639;53.270;7.956;2023-06-22T11:41:40;12.73;;;8.27;;
64297;SDS011;50639;53.270;7.956;2023-06-22T11:44:06;13.05;;;7.78;;
64297;SDS011;50639;53.270;7.956;2023-06-22T11:46:32;12.65;;;7.38;;
64297;SDS011;50639;53.270;7.956;2023-06-22T11:48:58;11.77;;;8.55;;
64297;SDS011;50639;53.270;7.956;2023-06-22T11:51:23;11.32;;;7.88;;
64297;SDS011;50639;53.270;7.956;2023-06-22T11:53:50;11.60;;;8.32;;
64297;SDS011;50639;53.270;7.956;2023-06-22T11:56:15;12.75;;;7.50;;
64297;SDS011;50639;53.270;7.956;2023-06-22T11:58:41;12.02;;;9.02;;
64297;SDS011;50639;53.270;7.956;2023-06-22T12:01:07;11.03;;;8.10;;
64297;SDS011;50639;53.270;7.956;2023-06-22T12:03:32;10.93;;;7.80;;
64297;SDS011;50639;53.270;7.956;2023-06-22T12:05:59;11.88;;;7.95;;
64297;SDS011;50639;53.270;7.956;2023-06-22T12:08:24;11.38;;;8.02;;
64297;SDS011;50639;53.270;7.956;2023-06-22T12:10:50;10.82;;;8.13;;
64297;SDS011;50639;53.270;7.956;2023-06-22T12:13:16;11.52;;;8.02;;
64297;SDS011;50639;53.270;7.956;2023-06-22T12:15:42;10.23;;;6.97;;
64297;SDS011;50639;53.270;7.956;2023-06-22T12:18:08;12.85;;;7.13;;
64297;SDS011;50639;53.270;7.956;2023-06-22T12:20:34;12.20;;;7.70;;
64297;SDS011;50639;53.270;7.956;2023-06-22T12:22:59;9.52;;;7.60;;
64297;SDS011;50639;53.270;7.956;2023-06-22T12:25:25;10.02;;;7.10;;
64297;SDS011;50639;53.270;7.956;2023-06-22T12:27:50;13.15;;;7.28;;
64297;SDS011;50639;53.270;7.956;2023-06-22T12:30:16;11.88;;;7.18;;
64297;SDS011;50639;53.270;7.956;2023-06-22T12:32:42;10.52;;;7.60;;
64297;SDS011;50639;53.270;7.956;2023-06-22T12:35:07;14.70;;;7.30;;
64297;SDS011;50639;53.270;7.956;2023-06-22T12:37:42;10.20;;;7.25;;
64297;SDS011;50639;53.270;7.956;2023-06-22T12:40:08;13.50;;;7.20;;
64297;SDS011;50639;53.270;7.956;2023-06-22T12:42:35;10.68;;;7.00;;
64297;SDS011;50639;53.270;7.956;2023-06-22T12:45:00;11.13;;;7.15;;
64297;SDS011;50639;53.270;7.956;2023-06-22T12:47:26;13.38;;;6.93;;
64297;SDS011;50639;53.270;7.956;2023-06-22T12:49:51;11.40;;;6.63;;
64297;SDS011;50639;53.270;7.956;2023-06-22T12:52:18;10.73;;;6.35;;
64297;SDS011;50639;53.270;7.956;2023-06-22T12:54:43;11.73;;;6.43;;
64297;SDS011;50639;53.270;7.956;2023-06-22T12:57:09;10.20;;;6.43;;
64297;SDS011;50639;53.270;7.956;2023-06-22T12:59:34;9.13;;;6.05;;
64297;SDS011;50639;53.270;7.956;2023-06-22T13:02:00;9.90;;;6.35;;
64297;SDS011;50639;53.270;7.956;2023-06-22T13:04:25;11.68;;;6.13;;
64297;SDS011;50639;53.270;7.956;2023-06-22T13:06:51;11.90;;;5.38;;
64297;SDS011;50639;53.270;7.956;2023-06-22T13:09:18;7.63;;;5.18;;
64297;SDS011;50639;53.270;7.956;2023-06-22T13:11:44;9.25;;;5.43;;
64297;SDS011;50639;53.270;7.956;2023-06-22T13:14:10;11.48;;;6.00;;
64297;SDS011;50639;53.270;7.956;2023-06-22T13:16:35;8.57;;;5.25;;
64297;SDS011;50639;53.270;7.956;2023-06-22T13:19:01;8.60;;;5.30;;
64297;SDS011;50639;53.270;7.956;2023-06-22T13:21:26;10.50;;;5.53;;
64297;SDS011;50639;53.270;7.956;2023-06-22T13:23:52;9.85;;;4.97;;
64297;SDS011;50639;53.270;7.956;2023-06-22T13:26:17;8.15;;;5.00;;
64297;SDS011;50639;53.270;7.956;2023-06-22T13:28:43;8.85;;;5.60;;
64297;SDS011;50639;53.270;7.956;2023-06-22T13:31:09;10.63;;;5.93;;
64297;SDS011;50639;53.270;7.956;2023-06-22T13:33:34;11.70;;;5.47;;
64297;SDS011;50639;53.270;7.956;2023-06-22T13:36:00;15.05;;;5.25;;
64297;SDS011;50639;53.270;7.956;2023-06-22T13:38:29;9.75;;;6.03;;
64297;SDS011;50639;53.270;7.956;2023-06-22T13:43:23;8.98;;;5.47;;
64297;SDS011;50639;53.270;7.956;2023-06-22T13:45:49;8.95;;;5.25;;
64297;SDS011;50639;53.270;7.956;2023-06-22T13:48:14;12.02;;;5.18;;
64297;SDS011;50639;53.270;7.956;2023-06-22T13:50:40;7.75;;;5.38;;
64297;SDS011;50639;53.270;7.956;2023-06-22T13:53:05;10.52;;;5.82;;
64297;SDS011;50639;53.270;7.956;2023-06-22T13:55:31;11.05;;;5.72;;
64297;SDS011;50639;53.270;7.956;2023-06-22T13:57:56;10.23;;;4.65;;
64297;SDS011;50639;53.270;7.956;2023-06-22T14:00:22;10.23;;;5.22;;
64297;SDS011;50639;53.270;7.956;2023-06-22T14:02:48;6.80;;;5.00;;
64297;SDS011;50639;53.270;7.956;2023-06-22T14:05:13;11.43;;;5.35;;
64297;SDS011;50639;53.270;7.956;2023-06-22T14:07:39;21.63;;;6.55;;
64297;SDS011;50639;53.270;7.956;2023-06-22T14:10:04;10.05;;;5.35;;
64297;SDS011;50639;53.270;7.956;2023-06-22T14:12:30;8.23;;;6.10;;
64297;SDS011;50639;53.270;7.956;2023-06-22T14:14:56;12.55;;;6.30;;
64297;SDS011;50639;53.270;7.956;2023-06-22T14:17:22;15.95;;;5.90;;
64297;SDS011;50639;53.270;7.956;2023-06-22T14:19:50;7.43;;;5.25;;
64297;SDS011;50639;53.270;7.956;2023-06-22T14:22:18;8.32;;;4.47;;
64297;SDS011;50639;53.270;7.956;2023-06-22T14:24:47;8.43;;;4.70;;
64297;SDS011;50639;53.270;7.956;2023-06-22T14:27:13;6.60;;;4.53;;
64297;SDS011;50639;53.270;7.956;2023-06-22T14:29:38;7.03;;;4.50;;
64297;SDS011;50639;53.270;7.956;2023-06-22T14:32:04;8.93;;;5.50;;
64297;SDS011;50639;53.270;7.956;2023-06-22T14:34:31;8.45;;;5.28;;
64297;SDS011;50639;53.270;7.956;2023-06-22T14:36:57;9.20;;;4.20;;
64297;SDS011;50639;53.270;7.956;2023-06-22T14:39:23;14.65;;;4.90;;
64297;SDS011;50639;53.270;7.956;2023-06-22T14:41:49;6.35;;;3.97;;
64297;SDS011;50639;53.270;7.956;2023-06-22T14:44:14;8.88;;;4.18;;
64297;SDS011;50639;53.270;7.956;2023-06-22T14:46:40;8.48;;;4.07;;
64297;SDS011;50639;53.270;7.956;2023-06-22T14:49:06;8.45;;;4.13;;
64297;SDS011;50639;53.270;7.956;2023-06-22T14:51:31;8.13;;;4.47;;
64297;SDS011;50639;53.270;7.956;2023-06-22T14:53:57;9.52;;;4.55;;